createdAt,value
2022-11-26T00:01:00.199Z,14.43
2022-11-26T00:03:26.562Z,13.90
2022-11-26T00:05:56.628Z,14.73
2022-11-26T00:08:30.963Z,15.13
2022-11-26T00:10:57.301Z,15.20
2022-11-26T00:13:26.563Z,14.83
2022-11-26T00:15:53.272Z,14.57
2022-11-26T00:18:20.478Z,15.20
2022-11-26T00:20:53.115Z,14.67
2022-11-26T00:23:24.500Z,14.50
2022-11-26T00:25:55.015Z,14.40
2022-11-26T00:28:27.176Z,12.30
2022-11-26T00:30:56.035Z,15.30
2022-11-26T00:33:23.032Z,15.70
2022-11-26T00:35:52.253Z,15.30
2022-11-26T00:38:21.077Z,14.60
2022-11-26T00:40:47.774Z,14.97
2022-11-26T00:43:16.046Z,15.33
2022-11-26T00:45:42.534Z,14.13
2022-11-26T00:48:08.938Z,15.90
2022-11-26T00:50:43.519Z,15.13
2022-11-26T00:53:13.751Z,14.33
2022-11-26T00:55:43.634Z,15.27
2022-11-26T00:58:22.152Z,16.27
2022-11-26T01:00:48.945Z,14.67
2022-11-26T01:03:15.378Z,16.40
2022-11-26T01:05:41.699Z,15.20
2022-11-26T01:08:34.742Z,18.03
2022-11-26T01:11:03.213Z,19.07
2022-11-26T01:13:30.598Z,20.33
2022-11-26T01:15:58.472Z,19.50
2022-11-26T01:18:24.988Z,24.33
2022-11-26T01:20:51.659Z,23.87
2022-11-26T01:23:19.079Z,26.30
2022-11-26T01:25:46.939Z,30.80
2022-11-26T01:28:18.054Z,32.00
2022-11-26T01:30:45.241Z,34.80
2022-11-26T01:33:11.566Z,34.77
2022-11-26T01:35:37.956Z,33.90
2022-11-26T01:38:04.509Z,31.30
2022-11-26T01:40:36.580Z,23.83
2022-11-26T01:43:15.153Z,22.77
2022-11-26T01:45:41.524Z,21.07
2022-11-26T01:48:33.565Z,20.90
2022-11-26T01:51:10.100Z,16.80
2022-11-26T01:53:47.585Z,17.87
2022-11-26T01:56:17.350Z,17.67
2022-11-26T01:58:48.872Z,18.20
2022-11-26T02:01:15.725Z,17.23
2022-11-26T02:03:53.221Z,17.50
2022-11-26T02:06:26.066Z,16.40
2022-11-26T02:08:53.412Z,17.77
2022-11-26T02:11:23.322Z,16.70
2022-11-26T02:13:53.970Z,15.27
2022-11-26T02:16:56.569Z,14.63
2022-11-26T02:19:42.783Z,14.37
2022-11-26T02:22:38.978Z,14.30
2022-11-26T02:25:30.365Z,13.70
2022-11-26T02:28:05.704Z,15.70
2022-11-26T02:30:36.802Z,14.27
2022-11-26T02:33:22.044Z,15.10
2022-11-26T02:36:01.521Z,13.83
2022-11-26T02:38:30.423Z,12.63
2022-11-26T02:40:57.287Z,11.90
2022-11-26T02:43:25.389Z,11.70
2022-11-26T02:46:01.391Z,13.40
2022-11-26T02:48:34.436Z,14.37
2022-11-26T02:51:07.136Z,17.17
2022-11-26T02:53:35.423Z,17.57
2022-11-26T02:56:19.374Z,15.40
2022-11-26T02:58:45.811Z,15.83
2022-11-26T03:01:19.209Z,16.00
2022-11-26T03:03:50.680Z,15.93
2022-11-26T03:06:18.911Z,17.73
2022-11-26T03:08:45.678Z,14.87
2022-11-26T03:11:12.593Z,16.83
2022-11-26T03:13:39.010Z,12.77
2022-11-26T03:16:05.437Z,12.80
2022-11-26T03:18:31.792Z,11.93
2022-11-26T03:20:58.157Z,12.77
2022-11-26T03:23:24.539Z,13.40
2022-11-26T03:25:50.894Z,13.83
2022-11-26T03:28:17.334Z,12.20
2022-11-26T03:30:43.669Z,17.60
2022-11-26T03:33:10.109Z,15.30
2022-11-26T03:35:36.468Z,14.20
2022-11-26T03:38:02.859Z,13.47
2022-11-26T03:40:29.230Z,14.13
2022-11-26T03:42:55.634Z,12.40
2022-11-26T03:45:22.085Z,12.70
2022-11-26T03:47:48.459Z,12.03
2022-11-26T03:50:14.945Z,12.00
2022-11-26T03:52:41.318Z,12.93
2022-11-26T03:55:08.102Z,13.37
2022-11-26T03:57:34.557Z,13.13
2022-11-26T04:00:00.928Z,11.60
2022-11-26T04:02:27.373Z,12.50
2022-11-26T04:04:53.778Z,11.13
2022-11-26T04:07:20.247Z,11.07
2022-11-26T04:09:46.609Z,12.60
2022-11-26T04:12:13.004Z,13.47
2022-11-26T04:14:39.580Z,13.97
2022-11-26T04:17:06.102Z,12.03
2022-11-26T04:19:32.477Z,12.97
2022-11-26T04:21:58.849Z,13.13
2022-11-26T04:24:25.362Z,13.00
2022-11-26T04:26:51.728Z,13.17
2022-11-26T04:29:18.091Z,13.07
2022-11-26T04:31:44.497Z,13.13
2022-11-26T04:34:10.955Z,13.03
2022-11-26T04:36:39.194Z,13.43
2022-11-26T04:39:05.642Z,12.10
2022-11-26T04:41:31.983Z,12.43
2022-11-26T04:43:58.339Z,12.53
2022-11-26T04:46:24.770Z,14.70
2022-11-26T04:48:51.128Z,13.80
2022-11-26T04:51:17.518Z,11.93
2022-11-26T04:53:43.871Z,13.47
2022-11-26T04:56:10.234Z,14.70
2022-11-26T04:58:36.623Z,13.33
2022-11-26T05:01:03.174Z,14.60
2022-11-26T05:03:29.905Z,13.10
2022-11-26T05:05:56.302Z,11.20
2022-11-26T05:08:22.674Z,13.20
2022-11-26T05:10:54.067Z,12.53
2022-11-26T05:13:20.658Z,12.83
2022-11-26T05:15:47.360Z,12.00
2022-11-26T05:18:13.810Z,11.67
2022-11-26T05:20:40.186Z,11.63
2022-11-26T05:23:06.544Z,12.50
2022-11-26T05:25:32.889Z,13.00
2022-11-26T05:27:59.291Z,11.07
2022-11-26T05:30:25.691Z,11.30
2022-11-26T05:32:52.084Z,10.43
2022-11-26T05:35:18.587Z,11.43
2022-11-26T05:37:45.150Z,11.23
2022-11-26T05:40:12.007Z,11.50
2022-11-26T05:42:38.981Z,12.43
2022-11-26T05:45:06.302Z,11.67
2022-11-26T05:47:32.665Z,12.80
2022-11-26T05:49:59.016Z,10.77
2022-11-26T05:52:25.435Z,10.27
2022-11-26T05:54:51.850Z,12.63
2022-11-26T05:57:19.942Z,12.23
2022-11-26T05:59:49.054Z,11.07
2022-11-26T06:02:15.475Z,11.70
2022-11-26T06:04:43.069Z,12.77
2022-11-26T06:07:10.192Z,12.33
2022-11-26T06:09:37.259Z,12.33
2022-11-26T06:12:04.182Z,12.13
2022-11-26T06:14:30.541Z,11.70
2022-11-26T06:16:56.927Z,11.57
2022-11-26T06:19:23.393Z,11.40
2022-11-26T06:21:49.930Z,11.90
2022-11-26T06:24:16.281Z,14.20
2022-11-26T06:26:42.635Z,16.13
2022-11-26T06:29:08.991Z,16.03
2022-11-26T06:31:35.364Z,14.57
2022-11-26T06:34:01.804Z,12.53
2022-11-26T06:36:28.159Z,12.10
2022-11-26T06:38:54.573Z,10.50
2022-11-26T06:41:20.962Z,11.47
2022-11-26T06:43:47.425Z,11.37
2022-11-26T06:46:14.217Z,11.33
2022-11-26T06:48:41.121Z,11.00
2022-11-26T06:51:13.022Z,10.27
2022-11-26T06:53:39.805Z,11.40
2022-11-26T06:56:08.429Z,10.80
2022-11-26T06:58:34.858Z,11.13
2022-11-26T07:01:11.028Z,11.17
2022-11-26T07:03:37.605Z,10.50
2022-11-26T07:06:04.309Z,11.50
2022-11-26T07:08:30.756Z,11.10
2022-11-26T07:11:04.045Z,10.97
2022-11-26T07:13:30.455Z,10.13
2022-11-26T07:16:02.746Z,11.10
2022-11-26T07:18:29.623Z,9.60
2022-11-26T07:20:56.643Z,11.70
2022-11-26T07:23:23.032Z,11.07
2022-11-26T07:25:49.426Z,11.13
2022-11-26T07:28:15.792Z,13.23
2022-11-26T07:30:42.202Z,12.17
2022-11-26T07:33:08.635Z,12.30
2022-11-26T07:35:34.995Z,11.13
2022-11-26T07:38:01.408Z,10.80
2022-11-26T07:40:27.821Z,11.23
2022-11-26T07:42:54.253Z,11.17
2022-11-26T07:45:24.132Z,10.97
2022-11-26T07:47:50.485Z,10.17
2022-11-26T07:50:17.039Z,12.50
2022-11-26T07:52:43.417Z,11.13
2022-11-26T07:55:12.703Z,11.83
2022-11-26T07:57:39.255Z,12.03
2022-11-26T08:00:06.445Z,11.90
2022-11-26T08:02:38.350Z,11.77
2022-11-26T08:05:05.410Z,12.87
2022-11-26T08:07:31.944Z,11.60
2022-11-26T08:09:58.371Z,12.03
2022-11-26T08:12:24.850Z,11.90
2022-11-26T08:14:51.229Z,12.73
2022-11-26T08:17:17.589Z,12.10
2022-11-26T08:19:44.001Z,11.57
2022-11-26T08:22:10.439Z,12.60
2022-11-26T08:24:37.041Z,12.17
2022-11-26T08:27:03.665Z,11.37
2022-11-26T08:29:30.036Z,11.67
2022-11-26T08:31:56.660Z,12.00
2022-11-26T08:34:23.078Z,12.63
2022-11-26T08:36:49.444Z,11.60
2022-11-26T08:39:17.807Z,12.50
2022-11-26T08:41:50.309Z,14.03
2022-11-26T08:44:19.475Z,12.10
2022-11-26T08:46:45.898Z,11.33
2022-11-26T08:49:13.452Z,13.00
2022-11-26T08:51:39.903Z,10.90
2022-11-26T08:54:06.715Z,10.07
2022-11-26T08:56:34.257Z,10.03
2022-11-26T08:59:00.695Z,9.33
2022-11-26T09:01:30.048Z,9.30
2022-11-26T09:03:59.082Z,10.00
2022-11-26T09:06:27.941Z,10.43
2022-11-26T09:09:12.716Z,8.63
2022-11-26T09:11:45.375Z,8.53
2022-11-26T09:14:12.847Z,8.47
2022-11-26T09:16:39.927Z,8.17
2022-11-26T09:19:07.509Z,8.37
2022-11-26T09:21:35.124Z,7.63
2022-11-26T09:24:02.083Z,7.60
2022-11-26T09:26:31.133Z,7.43
2022-11-26T09:28:57.747Z,8.10
2022-11-26T09:31:24.350Z,7.17
2022-11-26T09:33:51.342Z,6.73
2022-11-26T09:36:18.726Z,6.73
2022-11-26T09:38:45.691Z,6.80
2022-11-26T09:41:46.056Z,6.70
2022-11-26T09:44:47.391Z,6.60
2022-11-26T09:47:45.524Z,6.47
2022-11-26T09:50:14.704Z,7.07
2022-11-26T09:52:55.418Z,7.33
2022-11-26T09:55:33.552Z,6.57
2022-11-26T09:58:26.590Z,6.50
2022-11-26T10:00:57.991Z,7.00
2022-11-26T10:03:31.752Z,5.97
2022-11-26T10:06:02.027Z,6.47
2022-11-26T10:08:45.529Z,5.87
2022-11-26T10:11:36.672Z,5.53
2022-11-26T10:14:30.799Z,5.97
2022-11-26T10:17:12.327Z,5.97
2022-11-26T10:20:00.072Z,5.33
2022-11-26T10:22:32.317Z,4.73
2022-11-26T10:24:59.921Z,4.60
2022-11-26T10:27:30.765Z,5.17
2022-11-26T10:30:20.508Z,4.57
2022-11-26T10:32:49.762Z,4.57
2022-11-26T10:35:21.520Z,4.40
2022-11-26T10:37:48.976Z,4.57
2022-11-26T10:40:26.786Z,4.40
2022-11-26T10:43:08.462Z,4.40
2022-11-26T10:45:36.762Z,5.23
2022-11-26T10:48:21.806Z,4.60
2022-11-26T10:50:57.909Z,5.03
2022-11-26T10:53:26.078Z,5.33
2022-11-26T10:55:56.900Z,5.20
2022-11-26T10:58:42.567Z,4.30
2022-11-26T11:01:09.881Z,4.60
2022-11-26T11:04:08.838Z,5.07
2022-11-26T11:06:40.773Z,4.93
2022-11-26T11:09:28.366Z,4.63
2022-11-26T11:12:13.286Z,4.10
2022-11-26T11:14:43.334Z,4.33
2022-11-26T11:17:33.423Z,4.13
2022-11-26T11:20:14.516Z,3.73
2022-11-26T11:22:45.474Z,3.57
2022-11-26T11:25:23.651Z,3.83
2022-11-26T11:27:50.769Z,3.83
2022-11-26T11:30:29.252Z,3.90
2022-11-26T11:32:57.406Z,3.90
2022-11-26T11:35:31.436Z,3.73
2022-11-26T11:37:58.914Z,3.70
2022-11-26T11:40:29.045Z,3.73
2022-11-26T11:43:04.058Z,3.77
2022-11-26T11:45:34.843Z,3.57
2022-11-26T11:48:24.566Z,4.47
2022-11-26T11:50:58.081Z,4.20
2022-11-26T11:53:47.334Z,4.00
2022-11-26T11:56:25.962Z,4.47
2022-11-26T11:58:52.285Z,4.90
2022-11-26T12:01:44.111Z,3.63
2022-11-26T12:04:43.085Z,4.13
2022-11-26T12:07:31.627Z,4.00
2022-11-26T12:10:10.243Z,4.47
2022-11-26T12:12:42.227Z,4.30
2022-11-26T12:15:33.569Z,5.03
2022-11-26T12:18:41.012Z,4.30
2022-11-26T12:21:21.542Z,5.03
2022-11-26T12:24:11.397Z,3.77
2022-11-26T12:26:48.377Z,3.77
2022-11-26T12:29:25.720Z,3.97
2022-11-26T12:32:02.272Z,4.10
2022-11-26T12:34:34.734Z,4.27
2022-11-26T12:37:11.024Z,4.80
2022-11-26T12:39:53.675Z,4.40
2022-11-26T12:42:45.148Z,4.70
2022-11-26T12:45:38.736Z,3.60
2022-11-26T12:48:26.859Z,4.27
2022-11-26T12:51:06.584Z,4.40
2022-11-26T12:53:49.330Z,4.30
2022-11-26T12:56:30.804Z,3.97
2022-11-26T12:59:13.246Z,4.83
2022-11-26T13:01:39.762Z,4.20
2022-11-26T13:04:36.325Z,4.40
2022-11-26T13:07:00.544Z,3.83
2022-11-26T13:09:45.534Z,4.90
2022-11-26T13:12:37.420Z,4.60
2022-11-26T13:15:35.777Z,4.63
2022-11-26T13:18:04.426Z,4.33
2022-11-26T13:20:44.002Z,4.47
2022-11-26T13:23:38.092Z,4.17
2022-11-26T13:26:26.322Z,3.90
2022-11-26T13:29:13.981Z,3.97
2022-11-26T13:31:59.241Z,4.47
2022-11-26T13:34:38.470Z,3.77
2022-11-26T13:37:14.430Z,3.90
2022-11-26T13:40:25.522Z,4.27
2022-11-26T13:43:30.482Z,4.90
2022-11-26T13:46:16.453Z,3.23
2022-11-26T13:48:57.448Z,3.63
2022-11-26T13:51:32.982Z,3.93
2022-11-26T13:54:09.376Z,3.83
2022-11-26T13:56:37.516Z,4.33
2022-11-26T13:59:26.824Z,4.27
2022-11-26T14:01:55.280Z,3.90
2022-11-26T14:04:24.707Z,3.80
2022-11-26T14:07:06.339Z,4.87
2022-11-26T14:09:41.991Z,4.10
2022-11-26T14:12:12.832Z,4.17
2022-11-26T14:14:48.714Z,5.30
2022-11-26T14:17:22.734Z,4.60
2022-11-26T14:19:49.021Z,4.70
2022-11-26T14:22:21.496Z,3.67
2022-11-26T14:24:48.097Z,4.50
2022-11-26T14:27:19.406Z,4.53
2022-11-26T14:30:07.401Z,4.17
2022-11-26T14:32:39.628Z,4.90
2022-11-26T14:35:25.282Z,4.00
2022-11-26T14:37:57.776Z,3.90
2022-11-26T14:40:41.978Z,3.60
2022-11-26T14:43:19.324Z,4.23
2022-11-26T14:45:48.653Z,4.33
2022-11-26T14:48:26.541Z,4.33
2022-11-26T14:50:54.869Z,3.80
2022-11-26T14:53:23.652Z,4.17
2022-11-26T14:55:51.733Z,3.57
2022-11-26T14:58:29.575Z,3.90
2022-11-26T15:01:05.835Z,4.07
2022-11-26T15:03:32.424Z,3.70
2022-11-26T15:05:58.820Z,4.83
2022-11-26T15:08:26.961Z,4.37
2022-11-26T15:11:06.556Z,4.27
2022-11-26T15:13:41.351Z,4.20
2022-11-26T15:16:26.042Z,3.77
2022-11-26T15:18:54.579Z,4.10
2022-11-26T15:21:24.938Z,3.47
2022-11-26T15:23:53.330Z,3.90
2022-11-26T15:26:24.966Z,4.17
2022-11-26T15:28:51.331Z,4.50
2022-11-26T15:31:17.845Z,4.60
2022-11-26T15:33:45.206Z,4.37
2022-11-26T15:36:17.132Z,4.57
2022-11-26T15:39:05.974Z,5.03
2022-11-26T15:41:42.282Z,4.53
2022-11-26T15:44:22.160Z,4.63
2022-11-26T15:46:52.300Z,4.80
2022-11-26T15:49:22.617Z,4.73
2022-11-26T15:51:53.437Z,4.57
2022-11-26T15:54:38.424Z,5.27
2022-11-26T15:57:39.927Z,4.77
2022-11-26T16:00:35.657Z,4.60
2022-11-26T16:03:02.826Z,6.33
2022-11-26T16:05:39.222Z,5.20
2022-11-26T16:08:23.654Z,7.50
2022-11-26T16:11:02.578Z,11.17
2022-11-26T16:13:34.530Z,12.47
2022-11-26T16:16:08.872Z,7.47
2022-11-26T16:18:54.078Z,7.93
2022-11-26T16:21:24.268Z,6.50
2022-11-26T16:24:22.248Z,5.77
2022-11-26T16:27:17.740Z,7.70
2022-11-26T16:29:45.246Z,5.53
2022-11-26T16:32:12.695Z,6.30
2022-11-26T16:34:39.623Z,5.20
2022-11-26T16:37:29.230Z,4.90
2022-11-26T16:40:14.351Z,4.93
2022-11-26T16:42:40.956Z,5.73
2022-11-26T16:45:09.004Z,5.63
2022-11-26T16:47:39.279Z,6.10
2022-11-26T16:50:13.379Z,5.23
2022-11-26T16:52:41.279Z,5.87
2022-11-26T16:55:12.227Z,5.83
2022-11-26T16:57:38.652Z,5.10
2022-11-26T17:00:09.553Z,5.40
2022-11-26T17:02:36.031Z,4.90
2022-11-26T17:05:02.589Z,5.50
2022-11-26T17:07:40.737Z,5.53
2022-11-26T17:10:10.926Z,5.40
2022-11-26T17:12:37.252Z,6.03
2022-11-26T17:15:03.947Z,6.50
2022-11-26T17:17:30.382Z,4.87
2022-11-26T17:19:56.823Z,7.43
2022-11-26T17:22:26.001Z,6.50
2022-11-26T17:24:52.473Z,7.30
2022-11-26T17:27:20.839Z,6.57
2022-11-26T17:29:47.533Z,6.43
2022-11-26T17:32:16.987Z,5.57
2022-11-26T17:34:44.761Z,6.33
2022-11-26T17:37:19.645Z,6.30
2022-11-26T17:39:46.026Z,5.13
2022-11-26T17:42:12.361Z,5.53
2022-11-26T17:44:38.723Z,6.57
2022-11-26T17:47:17.733Z,8.00
2022-11-26T17:49:45.259Z,6.90
2022-11-26T17:52:12.157Z,6.00
2022-11-26T17:54:38.744Z,6.43
2022-11-26T17:57:05.145Z,7.60
2022-11-26T17:59:32.522Z,6.87
2022-11-26T18:01:59.045Z,5.87
2022-11-26T18:04:25.443Z,9.07
2022-11-26T18:07:06.725Z,5.53
2022-11-26T18:09:33.796Z,7.53
2022-11-26T18:12:00.992Z,6.07
2022-11-26T18:14:28.454Z,6.70
2022-11-26T18:16:55.397Z,6.30
2022-11-26T18:19:23.369Z,6.53
2022-11-26T18:21:50.611Z,6.83
2022-11-26T18:24:17.529Z,8.10
2022-11-26T18:26:43.847Z,6.07
2022-11-26T18:29:10.815Z,5.60
2022-11-26T18:31:39.665Z,6.23
2022-11-26T18:34:06.638Z,5.33
2022-11-26T18:36:32.973Z,4.63
2022-11-26T18:38:59.340Z,5.87
2022-11-26T18:41:25.714Z,5.97
2022-11-26T18:43:52.034Z,7.53
2022-11-26T18:46:18.772Z,6.40
2022-11-26T18:48:49.727Z,6.80
2022-11-26T18:51:16.858Z,8.30
2022-11-26T18:53:44.264Z,8.10
2022-11-26T18:56:16.273Z,6.20
2022-11-26T18:58:43.080Z,5.47
2022-11-26T19:01:14.940Z,7.47
2022-11-26T19:03:44.132Z,6.27
2022-11-26T19:06:14.346Z,7.13
2022-11-26T19:08:40.864Z,9.50
2022-11-26T19:11:11.888Z,7.23
2022-11-26T19:13:38.580Z,7.17
2022-11-26T19:16:15.831Z,7.70
2022-11-26T19:18:43.184Z,6.27
2022-11-26T19:21:21.614Z,6.80
2022-11-26T19:23:48.806Z,7.27
2022-11-26T19:26:15.680Z,7.93
2022-11-26T19:28:42.394Z,10.23
2022-11-26T19:31:14.472Z,9.13
2022-11-26T19:33:41.601Z,6.70
2022-11-26T19:36:11.068Z,10.27
2022-11-26T19:38:37.897Z,8.00
2022-11-26T19:41:05.247Z,10.50
2022-11-26T19:43:37.085Z,9.97
2022-11-26T19:46:16.951Z,8.00
2022-11-26T19:48:47.294Z,7.60
2022-11-26T19:51:15.299Z,7.70
2022-11-26T19:53:47.492Z,8.33
2022-11-26T19:56:19.642Z,7.67
2022-11-26T19:58:46.496Z,7.67
2022-11-26T20:01:18.244Z,6.27
2022-11-26T20:03:44.719Z,6.80
2022-11-26T20:06:26.040Z,8.27
2022-11-26T20:08:55.055Z,7.90
2022-11-26T20:11:22.674Z,6.80
2022-11-26T20:13:49.980Z,8.37
2022-11-26T20:16:22.123Z,7.67
2022-11-26T20:18:49.229Z,6.70
2022-11-26T20:21:19.740Z,7.13
2022-11-26T20:23:46.820Z,7.33
2022-11-26T20:26:17.270Z,11.83
2022-11-26T20:28:47.454Z,6.93
2022-11-26T20:31:17.250Z,6.70
2022-11-26T20:33:47.560Z,7.77
2022-11-26T20:36:17.962Z,6.63
2022-11-26T20:38:44.355Z,7.87
2022-11-26T20:41:15.885Z,6.77
2022-11-26T20:43:42.860Z,7.10
2022-11-26T20:46:11.413Z,8.27
2022-11-26T20:48:39.724Z,7.60
2022-11-26T20:51:08.770Z,8.93
2022-11-26T20:53:37.225Z,8.00
2022-11-26T20:56:04.752Z,6.93
2022-11-26T20:58:32.316Z,7.77
2022-11-26T21:00:58.840Z,7.70
2022-11-26T21:03:26.999Z,7.87
2022-11-26T21:05:54.168Z,7.07
2022-11-26T21:08:22.781Z,7.90
2022-11-26T21:10:50.082Z,6.60
2022-11-26T21:13:18.716Z,7.77
2022-11-26T21:15:48.998Z,8.13
2022-11-26T21:18:15.388Z,8.60
2022-11-26T21:20:42.848Z,9.93
2022-11-26T21:23:10.567Z,8.77
2022-11-26T21:25:42.173Z,9.10
2022-11-26T21:28:10.712Z,7.60
2022-11-26T21:30:38.093Z,10.30
2022-11-26T21:33:09.084Z,10.57
2022-11-26T21:35:36.907Z,8.60
2022-11-26T21:38:05.164Z,10.07
2022-11-26T21:40:32.968Z,9.10
2022-11-26T21:42:59.358Z,9.80
2022-11-26T21:45:27.471Z,9.07
2022-11-26T21:47:53.850Z,8.67
2022-11-26T21:50:20.232Z,11.17
2022-11-26T21:52:46.623Z,9.93
2022-11-26T21:55:13.074Z,11.00
2022-11-26T21:57:39.395Z,10.43
2022-11-26T22:00:06.415Z,8.83
2022-11-26T22:02:32.786Z,8.10
2022-11-26T22:04:59.178Z,9.20
2022-11-26T22:07:25.612Z,8.70
2022-11-26T22:09:52.151Z,9.37
2022-11-26T22:12:18.560Z,8.90
2022-11-26T22:14:44.898Z,9.37
2022-11-26T22:17:11.296Z,7.40
2022-11-26T22:19:38.139Z,7.70
2022-11-26T22:22:04.686Z,10.40
2022-11-26T22:24:31.166Z,10.20
2022-11-26T22:26:57.569Z,10.40
2022-11-26T22:29:23.928Z,9.63
2022-11-26T22:31:50.439Z,9.80
2022-11-26T22:34:18.708Z,9.17
2022-11-26T22:36:45.548Z,9.83
2022-11-26T22:39:14.186Z,8.57
2022-11-26T22:41:41.669Z,10.00
2022-11-26T22:44:08.633Z,8.20
2022-11-26T22:46:36.057Z,9.67
2022-11-26T22:49:02.786Z,8.43
2022-11-26T22:51:31.397Z,7.73
2022-11-26T22:54:00.504Z,8.03
2022-11-26T22:56:28.381Z,8.27
2022-11-26T22:58:55.088Z,7.63
2022-11-26T23:01:24.117Z,6.87
2022-11-26T23:03:51.746Z,8.20
2022-11-26T23:06:19.909Z,7.47
2022-11-26T23:08:46.514Z,8.93
2022-11-26T23:11:16.284Z,7.13
2022-11-26T23:13:44.296Z,7.90
2022-11-26T23:16:11.068Z,8.83
2022-11-26T23:18:38.340Z,7.87
2022-11-26T23:21:08.030Z,8.50
2022-11-26T23:23:36.078Z,8.23
2022-11-26T23:26:03.203Z,8.60
2022-11-26T23:28:31.606Z,8.40
2022-11-26T23:31:06.196Z,8.23
2022-11-26T23:33:33.401Z,9.67
2022-11-26T23:35:59.893Z,8.43
2022-11-26T23:38:26.454Z,9.50
2022-11-26T23:40:58.321Z,9.07
2022-11-26T23:43:26.241Z,9.87
2022-11-26T23:46:02.332Z,8.93
2022-11-26T23:48:29.192Z,8.50
2022-11-26T23:50:56.031Z,8.90
2022-11-26T23:53:22.620Z,9.47
2022-11-26T23:55:48.965Z,9.33
2022-11-26T23:58:16.456Z,10.00
